Mudcat — WCY8255 — position and weather

sailwx.info

Track history (hours):
 
Tides and Currents Weather Stations Pressure Air Temp Water Temp Dewpoint Dewpoint Depression Visibility Wind Speed Wind Dir Waves Ship Positions

Mudcat

Owner: TAURUS MARINE, SAN FRANCISCO, CA. More information available from US FCC via Universal Licensing System and Coast Guard Vessel Documentation Center.

Last reported at 2014-Dec-16 23:12 UTC. Time now 2014-Dec-22 05:39 UTC.
Position N 47°39' W 122°20'.

Length 22 m; draft 2 m.

Type: Tug. MMSI: 366969750.

Date/timePositionNaut miles runAvg speedWind from/ knotsBaromVisibWave heightAir tempDewpointWater temp
2014-Dec-16 23:12N 47°39' W 122°20'2 3.0
2014-Dec-16 22:33N 47°40' W 122°23'3 2.9
2014-Dec-16 21:33N 47°38' W 122°26'8 8.1
2014-Dec-16 20:33N 47°30' W 122°29'9 8.6
2014-Dec-16 19:33N 47°22' W 122°32'8 7.6
2014-Dec-16 18:32N 47°16' W 122°24'7 7.0
2014-Dec-16 17:33N 47°21' W 122°32'9 9.1
2014-Dec-16 16:33N 47°30' W 122°30'9 9.2
2014-Dec-16 15:33N 47°39' W 122°28'5 4.6
2014-Dec-16 14:33N 47°39' W 122°22'  
2014-Dec-12 21:33N 47°39' W 122°21'4 3.7
2014-Dec-12 20:34N 47°40' W 122°27'5 5.1
2014-Dec-12 19:34N 47°36' W 122°21'4 4.0
2014-Dec-12 18:33N 47°40' W 122°24'3 3.1
2014-Dec-12 17:33N 47°39' W 122°20'3 3.0
2014-Dec-12 16:33N 47°38' W 122°15'3 3.5
2014-Dec-12 15:34N 47°39' W 122°20'  
2014-Dec-10 10:13N 47°39' W 122°20'3 5.0
2014-Dec-10 09:33N 47°39' W 122°15'3 2.7
2014-Dec-10 08:20N 47°39' W 122°20'2 2.9
2014-Dec-10 07:33N 47°40' W 122°23'1 1.4
2014-Dec-10 06:33N 47°40' W 122°25'0 0.1
2014-Dec-10 05:33N 47°40' W 122°25'3 3.4
2014-Dec-10 04:33N 47°39' W 122°20'0 0.0
2014-Dec-09 22:26N 47°39' W 122°20'4 4.0
2014-Dec-09 21:32N 47°38' W 122°15'0 0.2
2014-Dec-09 20:32N 47°39' W 122°15'3 2.1
2014-Dec-09 19:08N 47°39' W 122°20'2 3.6
2014-Dec-09 18:31N 47°40' W 122°23'0 0.0
2014-Dec-09 18:31N 47°40' W 122°23'3 2.7
2014-Dec-09 17:33N 47°40' W 122°27'0 6.2
2014-Dec-09 17:32N 47°40' W 122°27'7 6.7
2014-Dec-09 16:33N 47°33' W 122°28'0 7.1
2014-Dec-09 16:31N 47°33' W 122°28'7 6.9
2014-Dec-09 15:33N 47°27' W 122°31'6 6.3
2014-Dec-09 14:33N 47°20' W 122°32'6 5.9
2014-Dec-09 13:33N 47°17' W 122°25'1 0.8
2014-Dec-09 12:33N 47°16' W 122°24'0 0.0
2014-Dec-09 11:32N 47°16' W 122°24'0 0.0
2014-Dec-09 10:32N 47°16' W 122°24'0 0.0
2014-Dec-09 09:33N 47°16' W 122°24'0 0.0
2014-Dec-09 08:06N 47°16' W 122°24'0 0.0
2014-Dec-09 06:28N 47°16' W 122°24'0 0.0
2014-Dec-09 05:33N 47°16' W 122°24'0 0.0
2014-Dec-09 04:33N 47°16' W 122°24'0 0.2
2014-Dec-09 03:33N 47°16' W 122°24'1 0.8
2014-Dec-09 02:33N 47°17' W 122°25'1 1.1
2014-Dec-09 01:33N 47°16' W 122°24'1 0.6
2014-Dec-09 00:30N 47°17' W 122°23'0 0.0
2014-Dec-08 23:28N 47°17' W 122°23'1 0.2
2014-Dec-08 16:15N 47°16' W 122°22'2 1.9
2014-Dec-08 15:16N 47°17' W 122°24'0 0.4
2014-Dec-08 14:23N 47°17' W 122°25'0 0.0
2014-Dec-08 07:12N 47°17' W 122°25'0 0.0
2014-Dec-08 05:26N 47°17' W 122°25'0 0.0
2014-Dec-07 21:20N 47°17' W 122°25'0 0.1
2014-Dec-07 20:34N 47°17' W 122°25'0 0.0
2014-Dec-07 19:33N 47°17' W 122°25'0 0.1
2014-Dec-07 18:32N 47°17' W 122°25'0 0.1
2014-Dec-07 17:32N 47°17' W 122°25'0 0.1
2014-Dec-07 16:33N 47°17' W 122°25'0 0.0
2014-Dec-07 15:33N 47°17' W 122°25'0 0.0
2014-Dec-07 14:33N 47°17' W 122°25'0 0.0
2014-Dec-07 13:33N 47°17' W 122°25'0 0.0
2014-Dec-07 12:24N 47°17' W 122°25'0 0.0
2014-Dec-07 11:33N 47°17' W 122°25'0 0.0
2014-Dec-07 10:34N 47°17' W 122°25'0 0.0
2014-Dec-07 09:32N 47°17' W 122°25'0 0.0
2014-Dec-07 08:33N 47°17' W 122°25'0 0.0
2014-Dec-07 07:33N 47°17' W 122°25'0 0.0
2014-Dec-07 06:33N 47°17' W 122°25'0 0.0
2014-Dec-07 05:33N 47°17' W 122°25'1 0.7
2014-Dec-07 04:32N 47°16' W 122°24'1 0.7
2014-Dec-07 03:30N 47°17' W 122°25'0 0.0
2014-Dec-07 02:22N 47°17' W 122°25'0 0.0
2014-Dec-07 01:10N 47°17' W 122°25'0 0.0
2014-Dec-07 00:34N 47°17' W 122°25'0 0.0
2014-Dec-06 23:14N 47°17' W 122°25'  
Track history (hours):
 
Tides and Currents Weather Stations Pressure Air Temp Water Temp Dewpoint Dewpoint Depression Visibility Wind Speed Wind Dir Waves Ship Positions

Mudcat

Owner: TAURUS MARINE, SAN FRANCISCO, CA. More information available from US FCC via Universal Licensing System and Coast Guard Vessel Documentation Center.

Last reported at 2014-Dec-16 23:12 UTC. Time now 2014-Dec-22 05:39 UTC.
Position N 47°39' W 122°20'.

Length 22 m; draft 2 m.

Type: Tug. MMSI: 366969750.

Date/timePositionNaut miles runAvg speedWind from/ knotsBaromVisibWave heightAir tempDewpointWater temp
2014-Dec-16 23:12N 47°39' W 122°20'2 3.0
2014-Dec-16 22:33N 47°40' W 122°23'3 2.9
2014-Dec-16 21:33N 47°38' W 122°26'8 8.1
2014-Dec-16 20:33N 47°30' W 122°29'9 8.6
2014-Dec-16 19:33N 47°22' W 122°32'8 7.6
2014-Dec-16 18:32N 47°16' W 122°24'7 7.0
2014-Dec-16 17:33N 47°21' W 122°32'9 9.1
2014-Dec-16 16:33N 47°30' W 122°30'9 9.2
2014-Dec-16 15:33N 47°39' W 122°28'5 4.6
2014-Dec-16 14:33N 47°39' W 122°22'  
2014-Dec-12 21:33N 47°39' W 122°21'4 3.7
2014-Dec-12 20:34N 47°40' W 122°27'5 5.1
2014-Dec-12 19:34N 47°36' W 122°21'4 4.0
2014-Dec-12 18:33N 47°40' W 122°24'3 3.1
2014-Dec-12 17:33N 47°39' W 122°20'3 3.0
2014-Dec-12 16:33N 47°38' W 122°15'3 3.5
2014-Dec-12 15:34N 47°39' W 122°20'  
2014-Dec-10 10:13N 47°39' W 122°20'3 5.0
2014-Dec-10 09:33N 47°39' W 122°15'3 2.7
2014-Dec-10 08:20N 47°39' W 122°20'2 2.9
2014-Dec-10 07:33N 47°40' W 122°23'1 1.4
2014-Dec-10 06:33N 47°40' W 122°25'0 0.1
2014-Dec-10 05:33N 47°40' W 122°25'3 3.4
2014-Dec-10 04:33N 47°39' W 122°20'0 0.0
2014-Dec-09 22:26N 47°39' W 122°20'4 4.0
2014-Dec-09 21:32N 47°38' W 122°15'0 0.2
2014-Dec-09 20:32N 47°39' W 122°15'3 2.1
2014-Dec-09 19:08N 47°39' W 122°20'2 3.6
2014-Dec-09 18:31N 47°40' W 122°23'0 0.0
2014-Dec-09 18:31N 47°40' W 122°23'3 2.7
2014-Dec-09 17:33N 47°40' W 122°27'0 6.2
2014-Dec-09 17:32N 47°40' W 122°27'7 6.7
2014-Dec-09 16:33N 47°33' W 122°28'0 7.1
2014-Dec-09 16:31N 47°33' W 122°28'7 6.9
2014-Dec-09 15:33N 47°27' W 122°31'6 6.3
2014-Dec-09 14:33N 47°20' W 122°32'6 5.9
2014-Dec-09 13:33N 47°17' W 122°25'1 0.8
2014-Dec-09 12:33N 47°16' W 122°24'0 0.0
2014-Dec-09 11:32N 47°16' W 122°24'0 0.0
2014-Dec-09 10:32N 47°16' W 122°24'0 0.0
2014-Dec-09 09:33N 47°16' W 122°24'0 0.0
2014-Dec-09 08:06N 47°16' W 122°24'0 0.0
2014-Dec-09 06:28N 47°16' W 122°24'0 0.0
2014-Dec-09 05:33N 47°16' W 122°24'0 0.0
2014-Dec-09 04:33N 47°16' W 122°24'0 0.2
2014-Dec-09 03:33N 47°16' W 122°24'1 0.8
2014-Dec-09 02:33N 47°17' W 122°25'1 1.1
2014-Dec-09 01:33N 47°16' W 122°24'1 0.6
2014-Dec-09 00:30N 47°17' W 122°23'0 0.0
2014-Dec-08 23:28N 47°17' W 122°23'1 0.2
2014-Dec-08 16:15N 47°16' W 122°22'2 1.9
2014-Dec-08 15:16N 47°17' W 122°24'0 0.4
2014-Dec-08 14:23N 47°17' W 122°25'0 0.0
2014-Dec-08 07:12N 47°17' W 122°25'0 0.0
2014-Dec-08 05:26N 47°17' W 122°25'0 0.0
2014-Dec-07 21:20N 47°17' W 122°25'0 0.1
2014-Dec-07 20:34N 47°17' W 122°25'0 0.0
2014-Dec-07 19:33N 47°17' W 122°25'0 0.1
2014-Dec-07 18:32N 47°17' W 122°25'0 0.1
2014-Dec-07 17:32N 47°17' W 122°25'0 0.1
2014-Dec-07 16:33N 47°17' W 122°25'0 0.0
2014-Dec-07 15:33N 47°17' W 122°25'0 0.0
2014-Dec-07 14:33N 47°17' W 122°25'0 0.0
2014-Dec-07 13:33N 47°17' W 122°25'0 0.0
2014-Dec-07 12:24N 47°17' W 122°25'0 0.0
2014-Dec-07 11:33N 47°17' W 122°25'0 0.0
2014-Dec-07 10:34N 47°17' W 122°25'0 0.0
2014-Dec-07 09:32N 47°17' W 122°25'0 0.0
2014-Dec-07 08:33N 47°17' W 122°25'0 0.0
2014-Dec-07 07:33N 47°17' W 122°25'0 0.0
2014-Dec-07 06:33N 47°17' W 122°25'0 0.0
2014-Dec-07 05:33N 47°17' W 122°25'1 0.7
2014-Dec-07 04:32N 47°16' W 122°24'1 0.7
2014-Dec-07 03:30N 47°17' W 122°25'0 0.0
2014-Dec-07 02:22N 47°17' W 122°25'0 0.0
2014-Dec-07 01:10N 47°17' W 122°25'0 0.0
2014-Dec-07 00:34N 47°17' W 122°25'0 0.0
2014-Dec-06 23:14N 47°17' W 122°25'  

Dump ship's entire track history